Time,TemperatureF,DewpointF,PressureIn,WindDirection,WindDirectionDegrees,WindSpeedMPH,WindSpeedGustMPH,Humidity,HourlyPrecipIn,Conditions,Clouds,dailyrainin,SolarRadiationWatts/m^2,SoftwareType,DateUTC
2013-11-17 00:04:00,27.1,14.3,24.93,South,180,1.2,1.2,58,0.00,RA,,0.00,9585.0,WeatherDisplay:10.37,2013-11-17 07:04:00,
2013-11-17 00:09:00,26.8,14.0,24.94,South,180,1.2,0.0,58,0.00,CLR,,0.00,9585.0,WeatherDisplay:10.37,2013-11-17 07:09:00,
2013-11-17 00:14:00,26.6,13.8,24.93,SE,135,2.3,2.3,58,0.00,CLR,,0.00,0.0,WeatherDisplay:10.37,2013-11-17 07:14:00,
2013-11-17 00:19:00,26.4,14.0,24.94,SW,225,1.2,0.0,59,0.00,CLR,,0.00,9585.0,WeatherDisplay:10.37,2013-11-17 07:19:00,
2013-11-17 00:24:00,26.2,13.8,24.94,South,180,3.5,3.5,59,0.00,CLR,,0.00,0.0,WeatherDisplay:10.37,2013-11-17 07:24:00,
2013-11-17 00:29:00,26.1,13.3,24.94,SE,135,2.3,0.0,58,0.00,CLR,,0.00,9585.0,WeatherDisplay:10.37,2013-11-17 07:29:00,
2013-11-17 00:34:00,26.1,13.7,24.94,West,270,1.2,0.0,59,0.00,CLR,,0.00,9585.0,WeatherDisplay:10.37,2013-11-17 07:34:00,
2013-11-17 00:39:00,25.7,13.3,24.93,SW,225,1.2,1.2,59,0.00,CLR,,0.00,0.0,WeatherDisplay:10.37,2013-11-17 07:39:00,
2013-11-17 00:44:00,25.5,13.2,24.94,SE,135,1.2,1.2,59,0.00,CLR,,0.00,9585.0,WeatherDisplay:10.37,2013-11-17 07:44:00,
2013-11-17 00:49:00,25.5,13.2,24.94,South,180,1.2,0.0,59,0.00,CLR,,0.00,0.0,WeatherDisplay:10.37,2013-11-17 07:49:00,
2013-11-17 00:54:00,25.3,13.4,24.95,SE,135,1.2,1.2,60,0.00,CLR,,0.00,9636.8,WeatherDisplay:10.37,2013-11-17 07:54:00,
2013-11-17 00:59:00,25.2,13.6,24.95,SSE,158,3.5,3.5,61,0.00,CLR,,0.00,9636.8,WeatherDisplay:10.37,2013-11-17 07:59:00,
2013-11-17 01:04:00,25.2,13.6,24.96,SSE,158,2.3,2.3,61,0.00,CLR,,0.00,0.0,WeatherDisplay:10.37,2013-11-17 08:04:00,
2013-11-17 01:09:00,25.7,13.3,24.95,SW,225,2.3,2.3,59,0.00,CLR,,0.00,9636.8,WeatherDisplay:10.37,2013-11-17 08:09:00,
2013-11-17 01:14:00,25.9,13.1,24.96,SW,225,1.2,1.2,58,0.00,CLR,,0.00,0.0,WeatherDisplay:10.37,2013-11-17 08:14:00,
2013-11-17 01:19:00,26.2,13.5,24.96,North,0,1.2,0.0,58,0.00,CLR,,0.00,9740.3,WeatherDisplay:10.37,2013-11-17 08:19:00,
2013-11-17 01:24:00,26.4,13.6,24.96,South,180,1.6,0.0,58,0.00,CLR,,0.00,9740.3,WeatherDisplay:10.37,2013-11-17 08:24:00,
2013-11-17 01:29:00,26.4,13.2,24.96,SSW,202,4.6,4.6,57,0.00,CLR,,0.00,0.0,WeatherDisplay:10.37,2013-11-17 08:29:00,
2013-11-17 01:34:00,26.6,13.4,24.96,South,180,1.2,0.0,57,0.00,CLR,,0.00,9740.3,WeatherDisplay:10.37,2013-11-17 08:34:00,
2013-11-17 01:39:00,26.8,13.2,24.95,North,0,1.2,0.0,56,0.00,CLR,,0.00,0.0,WeatherDisplay:10.37,2013-11-17 08:39:00,
2013-11-17 01:44:00,27.0,13.3,24.97,North,0,2.3,2.3,56,0.00,CLR,,0.00,9740.3,WeatherDisplay:10.37,2013-11-17 08:44:00,
2013-11-17 01:49:00,27.1,13.5,24.97,SW,225,1.2,0.0,56,0.00,CLR,,0.00,9792.1,WeatherDisplay:10.37,2013-11-17 08:49:00,
2013-11-17 01:54:00,27.1,13.5,24.97,South,180,3.5,3.5,56,0.00,CLR,,0.00,0.0,WeatherDisplay:10.37,2013-11-17 08:54:00,
2013-11-17 01:59:00,27.3,13.3,24.97,NE,45,3.5,0.0,55,0.00,CLR,,0.00,9792.1,WeatherDisplay:10.37,2013-11-17 08:59:00,
2013-11-17 02:04:00,27.3,13.3,24.97,SE,135,1.2,0.0,55,0.00,CLR,,0.00,0.0,WeatherDisplay:10.37,2013-11-17 09:04:00,
2013-11-17 02:09:00,27.3,12.8,24.97,South,180,1.2,0.0,54,0.00,CLR,,0.00,0.0,WeatherDisplay:10.37,2013-11-17 09:09:00,
2013-11-17 02:14:00,27.1,13.1,24.97,SE,135,3.5,3.5,55,0.00,CLR,,0.00,9792.1,WeatherDisplay:10.37,2013-11-17 09:14:00,
2013-11-17 02:19:00,27.1,13.1,24.98,West,270,0.0,0.0,55,0.00,CLR,,0.00,0.0,WeatherDisplay:10.37,2013-11-17 09:19:00,
2013-11-17 02:24:00,27.3,12.8,24.98,West,270,0.0,0.0,54,0.00,CLR,,0.00,9843.9,WeatherDisplay:10.37,2013-11-17 09:24:00,
2013-11-17 02:29:00,27.1,13.1,24.98,South,180,0.0,0.0,55,0.00,CLR,,0.00,0.0,WeatherDisplay:10.37,2013-11-17 09:29:00,
2013-11-17 02:34:00,27.0,12.9,24.98,South,180,2.3,2.3,55,0.00,CLR,,0.00,9843.9,WeatherDisplay:10.37,2013-11-17 09:34:00,
2013-11-17 02:39:00,26.6,12.6,24.98,SW,225,2.3,2.3,55,0.00,CLR,,0.00,9843.9,WeatherDisplay:10.37,2013-11-17 09:39:00,
2013-11-17 02:44:00,26.4,12.8,24.98,SE,135,0.0,0.0,56,0.00,CLR,,0.00,0.0,WeatherDisplay:10.37,2013-11-17 09:44:00,
2013-11-17 02:49:00,26.1,12.5,24.98,South,180,1.2,0.0,56,0.00,CLR,,0.00,9895.6,WeatherDisplay:10.37,2013-11-17 09:49:00,
2013-11-17 02:54:00,25.7,12.6,24.98,West,270,2.3,2.3,57,0.00,CLR,,0.00,0.0,WeatherDisplay:10.37,2013-11-17 09:54:00,
2013-11-17 02:59:00,25.5,12.4,24.99,North,0,0.0,0.0,57,0.00,CLR,,0.00,9895.6,WeatherDisplay:10.37,2013-11-17 09:59:00,
2013-11-17 03:04:00,25.5,12.8,24.99,South,180,1.2,0.0,58,0.00,CLR,,0.00,9895.6,WeatherDisplay:10.37,2013-11-17 10:04:00,
2013-11-17 03:09:00,25.2,12.4,24.99,North,0,0.0,0.0,58,0.00,CLR,,0.00,0.0,WeatherDisplay:10.37,2013-11-17 10:09:00,
2013-11-17 03:14:00,25.0,11.9,24.99,South,180,0.0,0.0,57,0.00,CLR,,0.00,9895.6,WeatherDisplay:10.37,2013-11-17 10:14:00,
2013-11-17 03:19:00,25.2,12.4,24.99,NW,315,2.3,0.0,58,0.00,CLR,,0.00,0.0,WeatherDisplay:10.37,2013-11-17 10:19:00,
2013-11-17 03:24:00,25.3,12.2,25.00,SW,225,1.2,0.0,57,0.00,CLR,,0.00,9947.4,WeatherDisplay:10.37,2013-11-17 10:24:00,
2013-11-17 03:29:00,25.7,12.2,24.99,NW,315,0.0,0.0,56,0.00,CLR,,0.00,9947.4,WeatherDisplay:10.37,2013-11-17 10:29:00,
2013-11-17 03:34:00,25.7,12.6,24.99,SW,225,1.2,0.0,57,0.00,CLR,,0.00,0.0,WeatherDisplay:10.37,2013-11-17 10:34:00,
2013-11-17 03:39:00,25.5,12.4,24.99,South,180,1.2,1.2,57,0.00,CLR,,0.00,9947.4,WeatherDisplay:10.37,2013-11-17 10:39:00,
2013-11-17 03:44:00,25.5,12.8,24.99,SW,225,1.2,0.0,58,0.00,CLR,,0.00,0.0,WeatherDisplay:10.37,2013-11-17 10:44:00,
2013-11-17 03:49:00,25.5,12.4,24.99,SW,225,0.0,0.0,57,0.00,CLR,,0.00,9999.2,WeatherDisplay:10.37,2013-11-17 10:49:00,
2013-11-17 03:54:00,25.3,12.6,25.00,SW,225,1.2,0.0,58,0.00,CLR,,0.00,9999.2,WeatherDisplay:10.37,2013-11-17 10:54:00,
2013-11-17 03:59:00,25.2,12.0,25.01,North,0,2.3,2.3,57,0.00,CLR,,0.00,0.0,WeatherDisplay:10.37,2013-11-17 10:59:00,
2013-11-17 04:04:00,25.2,12.4,25.01,South,180,1.2,1.2,58,0.00,CLR,,0.00,9999.2,WeatherDisplay:10.37,2013-11-17 11:04:00,
2013-11-17 04:09:00,25.2,12.0,25.01,South,180,0.0,0.0,57,0.00,CLR,,0.00,0.0,WeatherDisplay:10.37,2013-11-17 11:09:00,
2013-11-17 04:14:00,25.0,12.3,25.01,South,180,2.3,2.3,58,0.00,CLR,,0.00,9999.2,WeatherDisplay:10.37,2013-11-17 11:14:00,
2013-11-17 04:19:00,25.2,12.4,25.01,South,180,3.5,3.5,58,0.00,CLR,,0.00,10050.9,WeatherDisplay:10.37,2013-11-17 11:19:00,
2013-11-17 04:24:00,25.3,12.6,25.01,South,180,1.2,0.0,58,0.00,CLR,,0.00,0.0,WeatherDisplay:10.37,2013-11-17 11:24:00,
2013-11-17 04:29:00,25.5,12.4,25.01,SE,135,1.2,1.2,57,0.00,CLR,,0.00,10050.9,WeatherDisplay:10.37,2013-11-17 11:29:00,
2013-11-17 04:34:00,25.9,12.7,25.01,South,180,1.2,0.0,57,0.00,CLR,,0.00,0.0,WeatherDisplay:10.37,2013-11-17 11:34:00,
2013-11-17 04:39:00,25.9,12.3,25.01,South,180,3.5,3.5,56,0.00,CLR,,0.00,10050.9,WeatherDisplay:10.37,2013-11-17 11:39:00,
2013-11-17 04:44:00,26.1,12.5,25.01,West,270,1.2,0.0,56,0.00,CLR,,0.00,10050.9,WeatherDisplay:10.37,2013-11-17 11:44:00,
2013-11-17 04:49:00,26.1,12.5,25.01,South,180,2.3,0.0,56,0.00,CLR,,0.00,0.0,WeatherDisplay:10.37,2013-11-17 11:49:00,
2013-11-17 04:54:00,26.1,12.5,25.02,SW,225,1.2,0.0,56,0.00,CLR,,0.00,10102.5,WeatherDisplay:10.37,2013-11-17 11:54:00,
2013-11-17 04:59:00,25.9,12.3,25.01,SW,225,0.0,0.0,56,0.00,CLR,,0.00,0.0,WeatherDisplay:10.37,2013-11-17 11:59:00,
2013-11-17 05:04:00,25.9,12.3,25.02,SE,135,0.0,0.0,56,0.00,CLR,,0.00,10102.5,WeatherDisplay:10.37,2013-11-17 12:04:00,
2013-11-17 05:09:00,25.5,12.4,25.02,SW,225,2.3,0.0,57,0.00,CLR,,0.00,10102.5,WeatherDisplay:10.37,2013-11-17 12:09:00,
2013-11-17 05:14:00,25.3,11.8,25.02,West,270,2.3,2.3,56,0.00,CLR,,0.00,0.0,WeatherDisplay:10.37,2013-11-17 12:14:00,
2013-11-17 05:19:00,25.5,12.0,25.02,SE,135,2.3,2.3,56,0.00,CLR,,0.00,10154.3,WeatherDisplay:10.37,2013-11-17 12:19:00,
2013-11-17 05:24:00,25.5,12.0,25.02,SW,225,1.2,0.0,56,0.00,CLR,,0.00,0.0,WeatherDisplay:10.37,2013-11-17 12:24:00,
2013-11-17 05:29:00,25.7,11.7,25.02,SW,225,1.2,0.0,55,0.00,CLR,,0.00,10154.3,WeatherDisplay:10.37,2013-11-17 12:29:00,
2013-11-17 05:34:00,25.7,11.7,25.02,NW,315,2.3,0.0,55,0.00,CLR,,0.00,10154.3,WeatherDisplay:10.37,2013-11-17 12:34:00,
2013-11-17 05:39:00,25.7,11.7,25.01,SW,225,1.2,0.0,55,0.00,CLR,,0.00,0.0,WeatherDisplay:10.37,2013-11-17 12:39:00,
2013-11-17 05:44:00,25.5,12.0,25.02,NE,45,2.3,0.0,56,0.00,CLR,,0.00,10154.3,WeatherDisplay:10.37,2013-11-17 12:44:00,
2013-11-17 05:49:00,25.3,11.8,25.02,SW,225,1.2,0.0,56,0.00,CLR,,0.00,10154.3,WeatherDisplay:10.37,2013-11-17 12:49:00,
2013-11-17 05:54:00,25.2,11.6,25.03,NW,315,2.3,2.3,56,0.00,CLR,,0.00,10154.3,WeatherDisplay:10.37,2013-11-17 12:54:00,
2013-11-17 05:59:00,25.0,11.9,25.03,NW,315,3.5,3.5,57,0.00,CLR,,0.00,10154.3,WeatherDisplay:10.37,2013-11-17 12:59:00,
2013-11-17 06:04:00,25.0,11.9,25.03,NW,315,2.3,2.3,57,0.00,CLR,,0.00,0.0,WeatherDisplay:10.37,2013-11-17 13:04:00,
2013-11-17 06:09:00,24.6,11.9,25.02,NW,315,1.2,0.0,58,0.00,CLR,,0.00,10154.3,WeatherDisplay:10.37,2013-11-17 13:09:00,
2013-11-17 06:14:00,24.4,11.8,25.02,NE,45,2.3,0.0,58,0.00,CLR,,0.00,10154.3,WeatherDisplay:10.37,2013-11-17 13:14:00,
2013-11-17 06:19:00,24.4,11.8,25.02,NW,315,3.5,3.5,58,0.00,CLR,,0.00,10206.1,WeatherDisplay:10.37,2013-11-17 13:19:00,
2013-11-17 06:24:00,24.4,11.8,25.03,South,180,2.3,0.0,58,0.00,CLR,,0.00,10206.1,WeatherDisplay:10.37,2013-11-17 13:24:00,
2013-11-17 06:29:00,24.8,12.1,25.03,NW,315,5.8,5.8,58,0.00,CLR,,0.00,0.0,WeatherDisplay:10.37,2013-11-17 13:29:00,
2013-11-17 06:34:00,25.3,12.2,25.03,North,0,2.3,0.0,57,0.00,CLR,,0.00,10206.1,WeatherDisplay:10.37,2013-11-17 13:34:00,
2013-11-17 06:39:00,25.7,12.2,25.04,South,180,3.5,3.5,56,0.00,CLR,,0.00,10206.1,WeatherDisplay:10.37,2013-11-17 13:39:00,
2013-11-17 06:44:00,26.1,12.5,25.04,North,0,3.5,3.5,56,0.00,CLR,,0.00,10206.1,WeatherDisplay:10.37,2013-11-17 13:44:00,
2013-11-17 06:49:00,26.8,12.8,25.04,NE,45,2.3,0.0,55,0.00,CLR,,0.00,10257.8,WeatherDisplay:10.37,2013-11-17 13:49:00,
2013-11-17 06:54:00,27.0,12.9,25.04,North,0,3.5,0.0,55,0.00,CLR,,0.00,0.0,WeatherDisplay:10.37,2013-11-17 13:54:00,
2013-11-17 06:59:00,27.1,13.1,25.04,West,270,1.2,0.0,55,0.00,CLR,,0.00,10257.8,WeatherDisplay:10.37,2013-11-17 13:59:00,
2013-11-17 07:04:00,27.1,13.1,25.04,West,270,0.0,0.0,55,0.00,CLR,,0.00,10257.8,WeatherDisplay:10.37,2013-11-17 14:04:00,
2013-11-17 07:09:00,27.3,12.8,25.04,West,270,1.2,1.6,54,0.00,CLR,,0.00,10257.8,WeatherDisplay:10.37,2013-11-17 14:09:00,
2013-11-17 07:14:00,27.7,13.2,25.05,SW,225,0.0,0.0,54,0.00,CLR,,0.00,10257.8,WeatherDisplay:10.37,2013-11-17 14:14:00,
2013-11-17 07:19:00,27.9,13.3,25.05,North,0,0.0,0.0,54,0.00,CLR,,0.00,0.0,WeatherDisplay:10.37,2013-11-17 14:19:00,
2013-11-17 07:24:00,28.2,13.7,25.05,South,180,3.5,0.0,54,0.00,CLR,,0.00,10413.2,WeatherDisplay:10.37,2013-11-17 14:24:00,
2013-11-17 07:29:00,28.8,14.2,25.05,SE,135,3.5,0.0,54,0.00,CLR,,0.00,10413.2,WeatherDisplay:10.37,2013-11-17 14:29:00,
2013-11-17 07:34:00,29.1,14.1,25.05,NE,45,0.0,0.0,53,0.00,CLR,,0.00,10413.2,WeatherDisplay:10.37,2013-11-17 14:34:00,
2013-11-17 07:39:00,29.3,14.3,25.06,East,90,0.0,0.0,53,0.00,CLR,,0.00,10413.2,WeatherDisplay:10.37,2013-11-17 14:39:00,
2013-11-17 07:44:00,29.5,14.9,25.06,South,180,1.2,0.0,54,0.00,CLR,,0.00,0.0,WeatherDisplay:10.37,2013-11-17 14:44:00,
2013-11-17 07:49:00,29.8,15.2,25.06,SW,225,4.6,0.0,54,0.00,CLR,,0.00,10464.9,WeatherDisplay:10.37,2013-11-17 14:49:00,
2013-11-17 07:54:00,30.0,15.4,25.06,NE,45,1.6,0.0,54,0.00,CLR,,0.00,10464.9,WeatherDisplay:10.37,2013-11-17 14:54:00,
2013-11-17 07:59:00,30.2,15.1,25.06,SE,135,1.2,0.0,53,0.00,CLR,,0.00,10464.9,WeatherDisplay:10.37,2013-11-17 14:59:00,
2013-11-17 08:04:00,30.4,15.3,25.06,East,90,2.3,2.3,53,0.00,CLR,,0.00,10464.9,WeatherDisplay:10.37,2013-11-17 15:04:00,
2013-11-17 08:09:00,30.6,15.9,25.06,SW,225,2.3,0.0,54,0.00,CLR,,0.00,10464.9,WeatherDisplay:10.37,2013-11-17 15:09:00,
2013-11-17 08:14:00,30.7,16.0,25.07,NE,45,1.2,1.2,54,0.00,CLR,,0.00,10464.9,WeatherDisplay:10.37,2013-11-17 15:14:00,
2013-11-17 08:19:00,30.9,16.2,25.07,SE,135,5.8,0.0,54,0.00,CLR,,0.00,10516.7,WeatherDisplay:10.37,2013-11-17 15:19:00,
2013-11-17 08:24:00,30.9,16.2,25.07,West,270,2.3,0.0,54,0.00,CLR,,0.00,10516.7,WeatherDisplay:10.37,2013-11-17 15:24:00,
2013-11-17 08:29:00,31.1,16.4,25.07,West,270,0.0,0.0,54,0.00,CLR,,0.00,10516.7,WeatherDisplay:10.37,2013-11-17 15:29:00,
2013-11-17 08:34:00,31.1,16.8,25.07,South,180,1.2,0.0,55,0.00,CLR,,0.00,10516.7,WeatherDisplay:10.37,2013-11-17 15:34:00,
2013-11-17 08:39:00,31.1,16.8,25.08,North,0,3.5,3.5,55,0.00,CLR,,0.00,10516.7,WeatherDisplay:10.37,2013-11-17 15:39:00,
2013-11-17 08:44:00,31.1,16.8,25.08,NW,315,3.5,3.5,55,0.00,CLR,,0.00,10516.7,WeatherDisplay:10.37,2013-11-17 15:44:00,
2013-11-17 08:49:00,31.3,17.0,25.08,SW,225,0.0,0.0,55,0.00,CLR,,0.00,10464.7,WeatherDisplay:10.37,2013-11-17 15:49:00,
2013-11-17 08:54:00,31.3,16.5,25.08,West,270,0.0,0.0,54,0.00,CLR,,0.00,10464.7,WeatherDisplay:10.37,2013-11-17 15:54:00,
2013-11-17 08:59:00,31.5,16.7,25.09,North,0,0.0,0.0,54,0.00,CLR,,0.00,10464.7,WeatherDisplay:10.37,2013-11-17 15:59:00,
2013-11-17 09:04:00,31.5,16.7,25.09,North,0,0.0,0.0,54,0.00,CLR,,0.00,10464.7,WeatherDisplay:10.37,2013-11-17 16:04:00,
2013-11-17 09:09:00,31.6,16.9,25.09,SE,135,0.0,0.0,54,0.00,CLR,,0.00,10464.7,WeatherDisplay:10.37,2013-11-17 16:09:00,
2013-11-17 09:14:00,31.8,17.0,25.09,NE,45,0.0,0.0,54,0.00,CLR,,0.00,10464.7,WeatherDisplay:10.37,2013-11-17 16:14:00,
2013-11-17 09:19:00,32.0,16.8,25.10,East,90,0.0,0.0,53,0.00,CLR,,0.00,10413.2,WeatherDisplay:10.37,2013-11-17 16:19:00,
2013-11-17 09:24:00,32.2,16.5,25.10,SW,225,6.9,6.9,52,0.00,CLR,,0.00,10413.2,WeatherDisplay:10.37,2013-11-17 16:24:00,
2013-11-17 09:29:00,32.5,16.8,25.11,NE,45,2.3,2.3,52,0.00,CLR,,0.00,10413.2,WeatherDisplay:10.37,2013-11-17 16:29:00,
2013-11-17 09:35:00,32.7,17.0,25.11,South,180,2.3,2.3,52,0.00,CLR,,0.00,10413.2,WeatherDisplay:10.37,2013-11-17 16:35:00,
2013-11-17 09:40:00,32.9,17.2,25.11,SE,135,3.5,3.5,52,0.00,CLR,,0.00,10413.2,WeatherDisplay:10.37,2013-11-17 16:40:00,
2013-11-17 09:45:00,32.9,17.2,25.12,North,0,1.2,0.0,52,0.00,CLR,,0.00,10413.2,WeatherDisplay:10.37,2013-11-17 16:45:00,
2013-11-17 09:50:00,32.9,17.2,25.12,North,0,0.0,0.0,52,0.00,CLR,,0.00,10309.6,WeatherDisplay:10.37,2013-11-17 16:50:00,
2013-11-17 09:55:00,33.1,17.8,25.12,South,180,3.5,3.5,53,0.00,CLR,,0.00,10309.6,WeatherDisplay:10.37,2013-11-17 16:55:00,
2013-11-17 10:00:00,33.3,18.0,25.12,SE,135,1.2,1.2,53,0.00,OVC,,0.00,10309.6,WeatherDisplay:10.37,2013-11-17 17:00:00,
2013-11-17 10:05:00,33.3,18.0,25.13,SW,225,3.5,3.5,53,0.00,OVC,,0.00,10309.6,WeatherDisplay:10.37,2013-11-17 17:05:00,
2013-11-17 10:10:00,33.3,18.8,25.13,SE,135,4.6,4.6,55,0.00,OVC,,0.00,10309.6,WeatherDisplay:10.37,2013-11-17 17:10:00,
2013-11-17 10:15:00,33.1,19.1,25.14,NW,315,2.3,0.0,56,0.00,OVC,,0.00,10309.6,WeatherDisplay:10.37,2013-11-17 17:15:00,
2013-11-17 10:20:00,32.9,19.7,25.15,SW,225,3.5,3.5,58,0.00,OVC,,0.00,10205.9,WeatherDisplay:10.37,2013-11-17 17:20:00,
2013-11-17 10:25:00,32.7,20.4,25.15,South,180,1.2,1.2,60,0.00,OVC,,0.00,10205.9,WeatherDisplay:10.37,2013-11-17 17:25:00,
2013-11-17 10:30:00,32.4,20.8,25.16,SE,135,4.6,4.6,62,0.00,OVC,,0.00,10205.9,WeatherDisplay:10.37,2013-11-17 17:30:00,
2013-11-17 10:35:00,32.2,20.6,25.17,SW,225,4.6,4.6,62,0.00,OVC,,0.00,10205.9,WeatherDisplay:10.37,2013-11-17 17:35:00,
2013-11-17 10:40:00,32.0,20.8,25.16,NW,315,2.3,2.3,63,0.00,OVC,,0.00,10205.9,WeatherDisplay:10.37,2013-11-17 17:40:00,
2013-11-17 10:45:00,32.4,21.2,25.16,SE,135,1.2,0.0,63,0.00,OVC,,0.00,10205.9,WeatherDisplay:10.37,2013-11-17 17:45:00,
2013-11-17 10:50:00,32.7,21.1,25.16,SE,135,2.3,2.3,62,0.00,OVC,,0.00,10154.5,WeatherDisplay:10.37,2013-11-17 17:50:00,
2013-11-17 10:55:00,33.1,21.1,25.16,South,180,1.2,0.0,61,0.00,OVC,,0.00,10154.5,WeatherDisplay:10.37,2013-11-17 17:55:00,
2013-11-17 11:00:00,33.1,20.7,25.16,SE,135,1.2,0.0,60,0.00,OVC,,0.00,10154.5,WeatherDisplay:10.37,2013-11-17 18:00:00,
2013-11-17 11:05:00,33.3,20.9,25.15,SE,135,1.2,0.0,60,0.00,OVC,,0.00,10154.5,WeatherDisplay:10.37,2013-11-17 18:05:00,
2013-11-17 11:10:00,33.6,20.4,25.15,West,270,2.3,2.3,58,0.00,OVC,,0.00,10154.5,WeatherDisplay:10.37,2013-11-17 18:10:00,
2013-11-17 11:15:00,34.0,20.3,25.16,SE,135,2.3,0.0,57,0.00,OVC,,0.00,10154.5,WeatherDisplay:10.37,2013-11-17 18:15:00,
2013-11-17 11:20:00,34.2,20.1,25.15,West,270,2.3,2.3,56,0.00,OVC,,0.00,10206.3,WeatherDisplay:10.37,2013-11-17 18:20:00,
2013-11-17 11:25:00,34.5,19.6,25.15,North,0,1.2,0.0,54,0.00,OVC,,0.00,10206.3,WeatherDisplay:10.37,2013-11-17 18:25:00,
2013-11-17 11:30:00,34.9,19.5,25.16,NE,45,1.2,0.0,53,0.00,OVC,,0.00,10206.3,WeatherDisplay:10.37,2013-11-17 18:30:00,
2013-11-17 11:35:00,35.1,19.2,25.16,SE,135,1.2,0.0,52,0.00,OVC,,0.00,10206.3,WeatherDisplay:10.37,2013-11-17 18:35:00,
2013-11-17 11:40:00,35.2,18.9,25.15,SE,135,0.0,0.0,51,0.00,OVC,,0.00,10206.3,WeatherDisplay:10.37,2013-11-17 18:40:00,
2013-11-17 11:45:00,35.4,19.1,25.16,West,270,3.5,0.0,51,0.00,OVC,,0.00,10206.3,WeatherDisplay:10.37,2013-11-17 18:45:00,
2013-11-17 11:50:00,35.4,18.1,25.16,North,0,2.3,2.3,49,0.00,OVC,,0.00,10309.6,WeatherDisplay:10.37,2013-11-17 18:50:00,
2013-11-17 11:55:00,35.6,18.3,25.16,SE,135,1.6,1.6,49,0.00,OVC,,0.00,10309.6,WeatherDisplay:10.37,2013-11-17 18:55:00,
2013-11-17 12:00:00,35.6,18.8,25.16,SE,135,0.0,0.0,50,0.00,OVC,,0.00,10309.6,WeatherDisplay:10.37,2013-11-17 19:00:00,
2013-11-17 12:05:00,35.8,18.5,25.16,South,180,0.0,0.0,49,0.00,OVC,,0.00,10309.6,WeatherDisplay:10.37,2013-11-17 19:05:00,
2013-11-17 12:10:00,35.8,18.0,25.16,NE,45,0.0,0.0,48,0.00,OVC,,0.00,10309.6,WeatherDisplay:10.37,2013-11-17 19:10:00,
2013-11-17 12:15:00,36.0,18.1,25.16,South,180,1.2,0.0,48,0.00,OVC,,0.00,10309.6,WeatherDisplay:10.37,2013-11-17 19:15:00,
2013-11-17 12:20:00,36.0,17.2,25.17,SW,225,1.2,0.0,46,0.00,OVC,,0.00,10413.0,WeatherDisplay:10.37,2013-11-17 19:20:00,
2013-11-17 12:25:00,36.3,17.5,25.17,West,270,1.2,0.0,46,0.00,OVC,,0.00,10413.0,WeatherDisplay:10.37,2013-11-17 19:25:00,
2013-11-17 12:30:00,36.5,16.6,25.17,North,0,1.2,0.0,44,0.00,OVC,,0.00,10413.0,WeatherDisplay:10.37,2013-11-17 19:30:00,
2013-11-17 12:35:00,36.7,16.8,25.16,SE,135,2.3,2.3,44,0.00,OVC,,0.00,10413.0,WeatherDisplay:10.37,2013-11-17 19:35:00,
2013-11-17 12:40:00,37.0,17.1,25.16,SE,135,2.3,0.0,44,0.00,OVC,,0.00,10413.0,WeatherDisplay:10.37,2013-11-17 19:40:00,
2013-11-17 12:45:00,37.2,16.7,25.17,NW,315,1.2,0.0,43,0.00,OVC,,0.00,10413.0,WeatherDisplay:10.37,2013-11-17 19:45:00,
2013-11-17 12:50:00,37.4,16.4,25.16,North,0,0.0,0.0,42,0.00,OVC,,0.00,10413.0,WeatherDisplay:10.37,2013-11-17 19:50:00,
2013-11-17 12:55:00,37.6,16.0,25.16,South,180,3.5,3.5,41,0.00,OVC,,0.00,10413.0,WeatherDisplay:10.37,2013-11-17 19:55:00,
2013-11-17 13:00:00,37.8,16.1,25.17,NW,315,2.3,0.0,41,0.00,OVC,,0.00,10413.0,WeatherDisplay:10.37,2013-11-17 20:00:00,
2013-11-17 13:05:00,37.8,15.6,25.16,SW,225,3.5,3.5,40,0.00,OVC,,0.00,10413.0,WeatherDisplay:10.37,2013-11-17 20:05:00,
2013-11-17 13:10:00,37.9,15.1,25.16,East,90,3.5,3.5,39,0.00,OVC,,0.00,10413.0,WeatherDisplay:10.37,2013-11-17 20:10:00,
2013-11-17 13:15:00,37.9,15.1,25.17,NE,45,3.5,3.5,39,0.00,OVC,,0.00,10413.0,WeatherDisplay:10.37,2013-11-17 20:15:00,
2013-11-17 13:20:00,37.9,15.1,25.17,NE,45,2.3,2.3,39,0.00,OVC,,0.00,10413.0,WeatherDisplay:10.37,2013-11-17 20:20:00,
2013-11-17 13:25:00,38.1,15.9,25.17,South,180,1.2,0.0,40,0.00,OVC,,0.00,10413.0,WeatherDisplay:10.37,2013-11-17 20:25:00,
2013-11-17 13:30:00,38.3,16.1,25.17,SW,225,2.3,0.0,40,0.00,OVC,,0.00,10413.0,WeatherDisplay:10.37,2013-11-17 20:30:00,
2013-11-17 13:35:00,38.5,16.8,25.17,South,180,3.5,3.5,41,0.00,OVC,,0.00,10413.0,WeatherDisplay:10.37,2013-11-17 20:35:00,
2013-11-17 13:40:00,38.5,16.2,25.17,NNW,338,3.5,3.5,40,0.00,OVC,,0.00,10413.0,WeatherDisplay:10.37,2013-11-17 20:40:00,
2013-11-17 13:45:00,38.5,16.2,25.18,SW,225,3.5,0.0,40,0.00,OVC,,0.00,10413.0,WeatherDisplay:10.37,2013-11-17 20:45:00,
2013-11-17 13:50:00,38.5,15.6,25.17,East,90,3.5,3.5,39,0.00,OVC,,0.00,10413.2,WeatherDisplay:10.37,2013-11-17 20:50:00,
2013-11-17 13:55:00,38.5,16.2,25.18,North,0,1.2,0.0,40,0.00,OVC,,0.00,10413.2,WeatherDisplay:10.37,2013-11-17 20:55:00,
2013-11-17 14:00:00,38.5,15.6,25.17,NNE,22,1.2,1.2,39,0.00,OVC,,0.00,10413.2,WeatherDisplay:10.37,2013-11-17 21:00:00,
2013-11-17 14:05:00,38.5,15.6,25.19,NNE,22,1.2,1.2,39,0.00,OVC,,0.00,10413.2,WeatherDisplay:10.37,2013-11-17 21:05:00,
2013-11-17 14:10:00,38.3,16.1,25.19,South,180,4.6,4.6,40,0.00,OVC,,0.00,10413.2,WeatherDisplay:10.37,2013-11-17 21:10:00,
2013-11-17 14:15:00,38.3,16.6,25.19,SE,135,2.3,2.3,41,0.00,OVC,,0.00,10413.2,WeatherDisplay:10.37,2013-11-17 21:15:00,
2013-11-17 14:20:00,38.3,16.6,25.19,NE,45,1.2,0.0,41,0.00,OVC,,0.00,10361.4,WeatherDisplay:10.37,2013-11-17 21:20:00,
2013-11-17 14:25:00,38.3,16.6,25.19,West,270,4.6,4.6,41,0.00,OVC,,0.00,10361.4,WeatherDisplay:10.37,2013-11-17 21:25:00,
2013-11-17 14:30:00,38.3,16.6,25.19,North,0,5.8,5.8,41,0.00,OVC,,0.00,10361.4,WeatherDisplay:10.37,2013-11-17 21:30:00,
2013-11-17 14:35:00,38.3,16.6,25.19,West,270,2.3,2.3,41,0.00,OVC,,0.00,10361.4,WeatherDisplay:10.37,2013-11-17 21:35:00,
2013-11-17 14:40:00,38.3,16.6,25.19,NW,315,2.3,0.0,41,0.00,OVC,,0.00,10361.4,WeatherDisplay:10.37,2013-11-17 21:40:00,
2013-11-17 14:45:00,38.3,17.2,25.20,North,0,3.5,3.5,42,0.00,OVC,,0.00,10361.4,WeatherDisplay:10.37,2013-11-17 21:45:00,
2013-11-17 14:50:00,38.1,17.0,25.19,NE,45,4.6,4.6,42,0.00,OVC,,0.00,10309.6,WeatherDisplay:10.37,2013-11-17 21:50:00,
2013-11-17 14:55:00,37.9,17.4,25.20,North,0,3.5,3.5,43,0.00,OVC,,0.00,10309.6,WeatherDisplay:10.37,2013-11-17 21:55:00,
2013-11-17 15:00:00,37.8,17.8,25.20,North,0,3.5,3.5,44,0.00,OVC,,0.00,10309.6,WeatherDisplay:10.37,2013-11-17 22:00:00,
2013-11-17 15:05:00,37.8,17.8,25.20,North,0,3.5,3.5,44,0.00,OVC,,0.00,10309.6,WeatherDisplay:10.37,2013-11-17 22:05:00,
2013-11-17 15:10:00,37.4,18.0,25.21,North,0,2.3,0.0,45,0.00,OVC,,0.00,10309.6,WeatherDisplay:10.37,2013-11-17 22:10:00,
2013-11-17 15:15:00,37.4,18.0,25.21,NW,315,1.2,0.0,45,0.00,OVC,,0.00,10309.6,WeatherDisplay:10.37,2013-11-17 22:15:00,
2013-11-17 15:20:00,37.4,18.5,25.21,SW,225,0.0,0.0,46,0.00,OVC,,0.00,10257.8,WeatherDisplay:10.37,2013-11-17 22:20:00,
2013-11-17 15:25:00,37.4,18.5,25.21,NE,45,3.5,3.5,46,0.00,OVC,,0.00,10257.8,WeatherDisplay:10.37,2013-11-17 22:25:00,
2013-11-17 15:30:00,37.2,17.8,25.21,North,0,4.6,4.6,45,0.00,OVC,,0.00,10257.8,WeatherDisplay:10.37,2013-11-17 22:30:00,
2013-11-17 15:35:00,37.2,17.8,25.20,SW,225,3.5,3.5,45,0.00,CLR,,0.00,5.0,WeatherDisplay:10.37,2013-11-17 22:35:00,
2013-11-17 15:40:00,37.4,17.4,25.21,South,180,3.5,3.5,44,0.00,CLR,,0.00,14.0,WeatherDisplay:10.37,2013-11-17 22:40:00,
2013-11-17 15:45:00,37.4,18.0,25.22,SW,225,1.2,0.0,45,0.00,CLR,,0.00,10257.8,WeatherDisplay:10.37,2013-11-17 22:45:00,
2013-11-17 15:50:00,37.4,18.0,25.22,SW,225,1.2,0.0,45,0.00,CLR,,0.00,33.0,WeatherDisplay:10.37,2013-11-17 22:50:00,
2013-11-17 15:55:00,37.2,17.8,25.22,West,270,0.0,0.0,45,0.00,CLR,,0.00,42.0,WeatherDisplay:10.37,2013-11-17 22:55:00,
2013-11-17 16:00:00,37.0,17.1,25.22,West,270,0.0,0.0,44,0.00,CLR,,0.00,52.0,WeatherDisplay:10.37,2013-11-17 23:00:00,
2013-11-17 16:05:00,37.0,17.6,25.23,NW,315,0.0,0.0,45,0.00,CLR,,0.00,62.0,WeatherDisplay:10.37,2013-11-17 23:05:00,
2013-11-17 16:10:00,36.9,18.0,25.23,East,90,2.3,2.3,46,0.00,CLR,,0.00,72.0,WeatherDisplay:10.37,2013-11-17 23:10:00,
2013-11-17 16:15:00,36.9,17.5,25.23,SW,225,3.5,3.5,45,0.00,CLR,,0.00,82.0,WeatherDisplay:10.37,2013-11-17 23:15:00,
2013-11-17 16:20:00,37.0,17.1,25.23,NW,315,3.5,3.5,44,0.00,CLR,,0.00,10206.1,WeatherDisplay:10.37,2013-11-17 23:20:00,
2013-11-17 16:25:00,37.0,17.6,25.23,North,0,2.3,2.3,45,0.00,CLR,,0.00,102.0,WeatherDisplay:10.37,2013-11-17 23:25:00,
2013-11-17 16:30:00,36.9,18.0,25.25,NE,45,8.1,8.1,46,0.00,CLR,,0.00,112.0,WeatherDisplay:10.37,2013-11-17 23:30:00,
2013-11-17 16:35:00,36.5,18.2,25.25,North,0,3.5,3.5,47,0.00,CLR,,0.00,122.0,WeatherDisplay:10.37,2013-11-17 23:35:00,
2013-11-17 16:40:00,36.3,18.5,25.25,NNE,22,6.9,6.9,48,0.00,CLR,,0.00,133.0,WeatherDisplay:10.37,2013-11-17 23:40:00,
2013-11-17 16:45:00,36.0,18.1,25.25,SW,225,2.3,0.0,48,0.00,CLR,,0.00,10206.1,WeatherDisplay:10.37,2013-11-17 23:45:00,
2013-11-17 16:50:00,35.8,18.0,25.25,SE,135,1.2,0.0,48,0.00,CLR,,0.00,153.0,WeatherDisplay:10.37,2013-11-17 23:50:00,
2013-11-17 16:55:00,35.6,18.3,25.24,South,180,1.2,0.0,49,0.00,CLR,,0.00,163.0,WeatherDisplay:10.37,2013-11-17 23:55:00,
2013-11-17 17:00:00,35.2,18.0,25.25,SW,225,0.0,0.0,49,0.00,CLR,,0.00,173.0,WeatherDisplay:10.37,2013-11-18 00:00:00,
2013-11-17 17:05:00,34.9,18.6,25.23,South,180,2.3,2.3,51,0.00,CLR,,0.00,183.0,WeatherDisplay:10.37,2013-11-18 00:05:00,
2013-11-17 17:10:00,34.3,18.1,25.24,South,180,3.5,3.5,51,0.00,CLR,,0.00,10154.3,WeatherDisplay:10.37,2013-11-18 00:10:00,
2013-11-17 17:15:00,34.2,18.3,25.24,SW,225,1.2,1.2,52,0.00,CLR,,0.00,203.0,WeatherDisplay:10.37,2013-11-18 00:15:00,
2013-11-17 17:20:00,34.0,18.2,25.23,SW,225,1.2,0.0,52,0.00,CLR,,0.00,213.0,WeatherDisplay:10.37,2013-11-18 00:20:00,
2013-11-17 17:25:00,33.3,18.4,25.23,South,180,2.2,2.2,54,0.00,CLR,,0.00,10050.7,WeatherDisplay:10.37,2013-11-18 00:25:00,
2013-11-17 17:30:00,32.9,18.1,25.23,SW,225,1.2,0.0,54,0.00,CLR,,0.00,232.0,WeatherDisplay:10.37,2013-11-18 00:30:00,
2013-11-17 17:35:00,32.5,18.6,25.24,South,180,3.5,3.5,56,0.00,CLR,,0.00,10050.7,WeatherDisplay:10.37,2013-11-18 00:35:00,
2013-11-17 17:40:00,32.2,18.2,25.23,South,180,2.3,2.3,56,0.00,CLR,,0.00,251.0,WeatherDisplay:10.37,2013-11-18 00:40:00,
2013-11-17 17:45:00,31.8,18.3,25.23,SE,135,1.2,0.0,57,0.00,CLR,,0.00,260.0,WeatherDisplay:10.37,2013-11-18 00:45:00,
2013-11-17 17:50:00,31.5,18.0,25.23,SE,135,3.5,0.0,57,0.00,CLR,,0.00,9999.0,WeatherDisplay:10.37,2013-11-18 00:50:00,
2013-11-17 17:55:00,31.1,18.0,25.23,South,180,2.3,2.3,58,0.00,CLR,,0.00,278.0,WeatherDisplay:10.37,2013-11-18 00:55:00,
2013-11-17 18:00:00,30.7,17.7,25.23,South,180,2.3,2.3,58,0.00,CLR,,0.00,9999.0,WeatherDisplay:10.37,2013-11-18 01:00:00,
2013-11-17 18:05:00,30.7,17.7,25.24,South,180,2.3,2.3,58,0.00,CLR,,0.00,0.0,WeatherDisplay:10.37,2013-11-18 01:05:00,
2013-11-17 18:10:00,30.6,17.9,25.24,South,180,2.3,2.3,59,0.00,CLR,,0.00,9999.0,WeatherDisplay:10.37,2013-11-18 01:10:00,
2013-11-17 18:15:00,30.6,17.5,25.24,SE,135,3.5,3.5,58,0.00,CLR,,0.00,0.0,WeatherDisplay:10.37,2013-11-18 01:15:00,
2013-11-17 18:20:00,31.1,17.2,25.24,South,180,2.3,2.3,56,0.00,CLR,,0.00,0.0,WeatherDisplay:10.37,2013-11-18 01:20:00,
2013-11-17 18:25:00,31.8,17.0,25.24,SW,225,1.2,0.0,54,0.00,CLR,,0.00,9895.4,WeatherDisplay:10.37,2013-11-18 01:25:00,
2013-11-17 18:30:00,32.2,16.9,25.23,SE,135,0.0,0.0,53,0.00,CLR,,0.00,0.0,WeatherDisplay:10.37,2013-11-18 01:30:00,
2013-11-17 18:35:00,32.7,17.0,25.23,South,180,0.0,0.0,52,0.00,CLR,,0.00,9895.4,WeatherDisplay:10.37,2013-11-18 01:35:00,
2013-11-17 18:40:00,33.1,17.3,25.23,SE,135,3.5,3.5,52,0.00,CLR,,0.00,0.0,WeatherDisplay:10.37,2013-11-18 01:40:00,
2013-11-17 18:45:00,33.3,17.1,25.24,SW,225,2.3,0.0,51,0.00,CLR,,0.00,0.0,WeatherDisplay:10.37,2013-11-18 01:45:00,
2013-11-17 18:50:00,33.6,16.9,25.23,South,180,1.2,0.0,50,0.00,CLR,,0.00,9791.9,WeatherDisplay:10.37,2013-11-18 01:50:00,
2013-11-17 18:55:00,33.8,17.1,25.24,South,180,2.3,2.3,50,0.00,CLR,,0.00,0.0,WeatherDisplay:10.37,2013-11-18 01:55:00,
2013-11-17 19:00:00,33.8,17.1,25.24,SE,135,3.5,3.5,50,0.00,CLR,,0.00,9791.9,WeatherDisplay:10.37,2013-11-18 02:00:00,
2013-11-17 19:05:00,33.8,17.1,25.23,SE,135,2.3,2.3,50,0.00,CLR,,0.00,0.0,WeatherDisplay:10.37,2013-11-18 02:05:00,
2013-11-17 19:10:00,34.5,17.3,25.24,South,180,1.2,0.0,49,0.00,CLR,,0.00,9791.9,WeatherDisplay:10.37,2013-11-18 02:10:00,
2013-11-17 19:15:00,34.9,16.7,25.23,SE,135,1.2,1.2,47,0.00,CLR,,0.00,0.0,WeatherDisplay:10.37,2013-11-18 02:15:00,
2013-11-17 19:20:00,35.1,16.8,25.23,SE,135,1.2,0.0,47,0.00,CLR,,0.00,9740.1,WeatherDisplay:10.37,2013-11-18 02:20:00,
2013-11-17 19:25:00,35.4,16.7,25.23,SE,135,1.2,0.0,46,0.00,CLR,,0.00,9740.1,WeatherDisplay:10.37,2013-11-18 02:25:00,
2013-11-17 19:30:00,35.6,16.8,25.23,NNE,22,3.5,3.5,46,0.00,CLR,,0.00,0.0,WeatherDisplay:10.37,2013-11-18 02:30:00,
2013-11-17 19:35:00,35.8,17.0,25.23,East,90,2.3,2.3,46,0.00,CLR,,0.00,9740.1,WeatherDisplay:10.37,2013-11-18 02:35:00,
2013-11-17 19:40:00,35.6,16.8,25.23,SW,225,1.2,0.0,46,0.00,CLR,,0.00,0.0,WeatherDisplay:10.37,2013-11-18 02:40:00,
2013-11-17 19:45:00,35.6,16.8,25.24,South,180,2.3,2.3,46,0.00,CLR,,0.00,0.0,WeatherDisplay:10.37,2013-11-18 02:45:00,
2013-11-17 19:50:00,35.6,16.8,25.23,SW,225,3.5,3.5,46,0.00,CLR,,0.00,9636.6,WeatherDisplay:10.37,2013-11-18 02:50:00,
2013-11-17 19:55:00,36.0,16.7,25.24,East,90,5.8,5.8,45,0.00,CLR,,0.00,0.0,WeatherDisplay:10.37,2013-11-18 02:55:00,
2013-11-17 20:00:00,36.1,16.8,25.23,East,90,3.5,0.0,45,0.00,CLR,,0.00,9636.6,WeatherDisplay:10.37,2013-11-18 03:00:00,
2013-11-17 20:05:00,36.1,16.8,25.23,East,90,1.2,0.0,45,0.00,CLR,,0.00,9636.6,WeatherDisplay:10.37,2013-11-18 03:05:00,
2013-11-17 20:10:00,36.3,16.5,25.23,East,90,5.8,5.8,44,0.00,CLR,,0.00,0.0,WeatherDisplay:10.37,2013-11-18 03:10:00,
2013-11-17 20:15:00,36.3,16.5,25.24,South,180,3.5,3.5,44,0.00,CLR,,0.00,9636.6,WeatherDisplay:10.37,2013-11-18 03:15:00,
2013-11-17 20:20:00,36.1,15.8,25.23,South,180,6.9,6.9,43,0.00,CLR,,0.00,0.0,WeatherDisplay:10.37,2013-11-18 03:20:00,
2013-11-17 20:25:00,36.1,15.8,25.23,South,180,3.5,3.5,43,0.00,CLR,,0.00,0.0,WeatherDisplay:10.37,2013-11-18 03:25:00,
2013-11-17 20:30:00,36.0,16.1,25.24,West,270,2.3,0.0,44,0.00,CLR,,0.00,9532.8,WeatherDisplay:10.37,2013-11-18 03:30:00,
2013-11-17 20:35:00,35.8,16.0,25.24,SE,135,2.3,2.3,44,0.00,CLR,,0.00,0.0,WeatherDisplay:10.37,2013-11-18 03:35:00,
2013-11-17 20:40:00,35.4,15.6,25.23,SE,135,2.3,2.3,44,0.00,CLR,,0.00,9532.8,WeatherDisplay:10.37,2013-11-18 03:40:00,
2013-11-17 20:45:00,35.2,15.5,25.23,South,180,1.2,0.0,44,0.00,CLR,,0.00,9532.8,WeatherDisplay:10.37,2013-11-18 03:45:00,
2013-11-17 20:50:00,34.9,15.7,25.24,South,180,1.2,0.0,45,0.00,CLR,,0.00,0.0,WeatherDisplay:10.37,2013-11-18 03:50:00,
2013-11-17 20:55:00,34.5,15.3,25.23,SW,225,0.0,0.0,45,0.00,CLR,,0.00,9429.3,WeatherDisplay:10.37,2013-11-18 03:55:00,
2013-11-17 21:00:00,34.2,15.0,25.23,South,180,3.5,3.5,45,0.00,CLR,,0.00,9429.3,WeatherDisplay:10.37,2013-11-18 04:00:00,
2013-11-17 21:05:00,34.2,15.0,25.23,South,180,1.2,1.2,45,0.00,CLR,,0.00,0.0,WeatherDisplay:10.37,2013-11-18 04:05:00,
2013-11-17 21:10:00,34.0,15.3,25.23,NW,315,1.2,0.0,46,0.00,CLR,,0.00,9429.3,WeatherDisplay:10.37,2013-11-18 04:10:00,
2013-11-17 21:15:00,34.2,15.5,25.23,SW,225,1.2,0.0,46,0.00,CLR,,0.00,0.0,WeatherDisplay:10.37,2013-11-18 04:15:00,
2013-11-17 21:20:00,34.0,15.3,25.23,NE,45,2.3,2.3,46,0.00,CLR,,0.00,0.0,WeatherDisplay:10.37,2013-11-18 04:20:00,
2013-11-17 21:25:00,33.8,15.7,25.23,SW,225,0.0,0.0,47,0.00,CLR,,0.00,9325.7,WeatherDisplay:10.37,2013-11-18 04:25:00,
2013-11-17 21:30:00,33.6,15.5,25.23,South,180,1.2,0.0,47,0.00,CLR,,0.00,0.0,WeatherDisplay:10.37,2013-11-18 04:30:00,
2013-11-17 21:35:00,33.4,15.3,25.23,West,270,0.0,0.0,47,0.00,CLR,,0.00,9325.7,WeatherDisplay:10.37,2013-11-18 04:35:00,
2013-11-17 21:40:00,33.1,15.0,25.23,South,180,2.3,2.3,47,0.00,CLR,,0.00,9325.7,WeatherDisplay:10.37,2013-11-18 04:40:00,
2013-11-17 21:45:00,33.1,15.5,25.23,West,270,1.2,0.0,48,0.00,CLR,,0.00,0.0,WeatherDisplay:10.37,2013-11-18 04:45:00,
2013-11-17 21:50:00,32.7,15.2,25.23,South,180,1.2,0.0,48,0.00,CLR,,0.00,9274.1,WeatherDisplay:10.37,2013-11-18 04:50:00,
2013-11-17 21:55:00,32.4,15.3,25.24,West,270,2.3,2.3,49,0.00,CLR,,0.00,9274.1,WeatherDisplay:10.37,2013-11-18 04:55:00,
2013-11-17 22:00:00,32.4,15.3,25.23,South,180,0.0,0.0,49,0.00,CLR,,0.00,0.0,WeatherDisplay:10.37,2013-11-18 05:00:00,
2013-11-17 22:01:00,32.4,15.3,25.23,South,180,0.0,0.0,49,0.00,CLR,,0.00,9274.1,WeatherDisplay:10.37,2013-11-18 05:01:00,
2013-11-17 22:02:00,32.4,15.3,25.23,South,180,0.0,0.0,49,0.00,CLR,,0.00,9274.1,WeatherDisplay:10.37,2013-11-18 05:02:00,
2013-11-17 22:04:00,32.4,15.3,25.23,South,180,0.0,0.0,49,0.00,CLR,,0.00,0.0,WeatherDisplay:10.37,2013-11-18 05:04:00,
2013-11-17 22:09:00,31.8,15.3,25.23,West,270,2.3,0.0,50,0.00,CLR,,0.00,9274.1,WeatherDisplay:10.37,2013-11-18 05:09:00,
2013-11-17 22:14:00,31.5,15.4,25.23,South,180,0.0,0.0,51,0.00,CLR,,0.00,0.0,WeatherDisplay:10.37,2013-11-18 05:14:00,
2013-11-17 22:19:00,30.9,15.3,25.23,South,180,2.3,2.3,52,0.00,CLR,,0.00,0.0,WeatherDisplay:10.37,2013-11-18 05:19:00,
2013-11-17 22:24:00,30.4,14.8,25.23,SW,225,2.3,0.0,52,0.00,CLR,,0.00,9222.4,WeatherDisplay:10.37,2013-11-18 05:24:00,
2013-11-17 22:29:00,30.2,15.1,25.23,SW,225,1.2,1.2,53,0.00,CLR,,0.00,0.0,WeatherDisplay:10.37,2013-11-18 05:29:00,
2013-11-17 22:34:00,29.7,14.6,25.23,SE,135,1.2,0.0,53,0.00,CLR,,0.00,0.0,WeatherDisplay:10.37,2013-11-18 05:34:00,
2013-11-17 22:39:00,29.5,14.9,25.23,NE,45,0.0,0.0,54,0.00,CLR,,0.00,0.0,WeatherDisplay:10.37,2013-11-18 05:39:00,
2013-11-17 22:44:00,29.3,14.7,25.23,South,180,0.0,0.0,54,0.00,CLR,,0.00,0.0,WeatherDisplay:10.37,2013-11-18 05:44:00,
2013-11-17 22:49:00,29.3,15.1,25.24,SW,225,1.2,0.0,55,0.00,CLR,,0.00,9170.6,WeatherDisplay:10.37,2013-11-18 05:49:00,
2013-11-17 22:54:00,29.1,14.9,25.24,West,270,3.5,3.5,55,0.00,CLR,,0.00,0.0,WeatherDisplay:10.37,2013-11-18 05:54:00,
2013-11-17 22:59:00,29.5,15.3,25.24,SE,135,4.6,4.6,55,0.00,CLR,,0.00,0.0,WeatherDisplay:10.37,2013-11-18 05:59:00,
2013-11-17 23:04:00,29.7,15.5,25.24,South,180,2.3,2.3,55,0.00,CLR,,0.00,9170.6,WeatherDisplay:10.37,2013-11-18 06:04:00,
2013-11-17 23:09:00,31.8,16.6,25.24,NE,45,2.3,0.0,53,0.00,CLR,,0.00,0.0,WeatherDisplay:10.37,2013-11-18 06:09:00,
2013-11-17 23:14:00,32.5,16.4,25.23,South,180,3.5,3.5,51,0.00,CLR,,0.00,0.0,WeatherDisplay:10.37,2013-11-18 06:14:00,
2013-11-17 23:19:00,32.9,16.3,25.24,South,180,2.3,2.3,50,0.00,CLR,,0.00,0.0,WeatherDisplay:10.37,2013-11-18 06:19:00,
2013-11-17 23:24:00,32.9,16.3,25.24,South,180,2.3,0.0,50,0.00,CLR,,0.00,0.0,WeatherDisplay:10.37,2013-11-18 06:24:00,
2013-11-17 23:29:00,32.9,16.3,25.23,South,180,2.3,2.3,50,0.00,CLR,,0.00,9170.6,WeatherDisplay:10.37,2013-11-18 06:29:00,
2013-11-17 23:34:00,32.9,16.3,25.24,SW,225,1.2,1.2,50,0.00,CLR,,0.00,0.0,WeatherDisplay:10.37,2013-11-18 06:34:00,
2013-11-17 23:39:00,32.9,16.3,25.23,North,0,2.3,2.3,50,0.00,CLR,,0.00,0.0,WeatherDisplay:10.37,2013-11-18 06:39:00,
2013-11-17 23:44:00,32.9,15.8,25.24,South,180,2.3,2.3,49,0.00,CLR,,0.00,9170.6,WeatherDisplay:10.37,2013-11-18 06:44:00,
2013-11-17 23:49:00,33.3,16.1,25.23,SE,135,3.5,3.5,49,0.00,CLR,,0.00,0.0,WeatherDisplay:10.37,2013-11-18 06:49:00,
2013-11-17 23:54:00,33.4,16.3,25.24,SW,225,3.5,3.5,49,0.00,CLR,,0.00,0.0,WeatherDisplay:10.37,2013-11-18 06:54:00,
2013-11-17 23:59:00,33.6,16.5,25.24,South,180,3.1,3.1,49,0.00,CLR,,0.00,9222.2,WeatherDisplay:10.37,2013-11-18 06:59:00,